Time;durP1;ratioP1;P1;durP2;ratioP2;P2;SDS_P1;SDS_P2;PMS_P1;PMS_P2;Temp;Humidity;BMP_temperature;BMP_pressure;BME280_temperature;BME280_humidity;BME280_pressure;Samples;Min_cycle;Max_cycle;Signal;HPM_P1;HPM_P2
2020/12/27 00:01:01;;;;;;;5.32;1.67;;;;;;;-0.90;83.30;97038.22;4911152;29;20074;-77
2020/12/27 00:03:27;;;;;;;3.20;1.63;;;;;;;-0.90;83.04;97035.66;4927324;29;20066;-76
2020/12/27 00:05:53;;;;;;;4.80;2.17;;;;;;;-0.87;82.59;97025.09;4943798;28;20059;-76
2020/12/27 00:08:19;;;;;;;5.00;2.20;;;;;;;-0.93;83.16;97004.56;4949809;28;20161;-76
2020/12/27 00:10:45;;;;;;;3.67;1.88;;;;;;;-0.88;83.16;96999.72;4929675;29;20050;-76
2020/12/27 00:13:10;;;;;;;3.33;1.92;;;;;;;-0.80;82.73;97002.19;4945380;29;20447;-76
2020/12/27 00:15:37;;;;;;;3.20;1.70;;;;;;;-0.93;83.46;96981.56;4949148;29;20123;-77
2020/12/27 00:18:02;;;;;;;3.45;1.30;;;;;;;-0.92;83.73;96991.59;4936233;29;20562;-76
2020/12/27 00:20:30;;;;;;;4.53;2.28;;;;;;;-0.98;83.19;96975.22;4926335;29;20071;-77
2020/12/27 00:22:56;;;;;;;2.88;1.48;;;;;;;-0.96;83.03;96975.84;4957275;28;20031;-77
2020/12/27 00:25:22;;;;;;;4.63;1.85;;;;;;;-1.02;83.14;96958.63;4963277;28;20062;-77
2020/12/27 00:27:48;;;;;;;2.85;1.50;;;;;;;-1.00;82.74;96966.13;4946014;29;20031;-77
2020/12/27 00:30:13;;;;;;;6.20;1.85;;;;;;;-1.02;82.92;96968.88;4942084;29;20039;-76
2020/12/27 00:32:39;;;;;;;3.50;1.83;;;;;;;-0.98;83.29;96949.66;4928643;29;20106;-77
2020/12/27 00:35:04;;;;;;;3.67;1.80;;;;;;;-1.04;83.61;96950.38;4961455;28;20039;-76
2020/12/27 00:37:31;;;;;;;3.55;1.73;;;;;;;-1.05;82.77;96942.88;4931098;29;20074;-76
2020/12/27 00:39:57;;;;;;;3.78;1.52;;;;;;;-1.01;83.02;96939.81;4915816;29;20047;-77
2020/12/27 00:42:23;;;;;;;2.25;1.60;;;;;;;-1.06;83.24;96936.16;4948835;29;20070;-76
2020/12/27 00:44:49;;;;;;;2.53;1.55;;;;;;;-1.01;83.45;96934.69;4959637;28;20031;-76
2020/12/27 00:47:15;;;;;;;4.70;1.85;;;;;;;-1.04;83.32;96919.69;4931411;29;20042;-76
2020/12/27 00:49:40;;;;;;;3.80;1.60;;;;;;;-1.05;82.67;96907.88;4926904;29;20143;-76
2020/12/27 00:52:07;;;;;;;2.97;1.35;;;;;;;-1.06;83.60;96897.84;4948909;29;20054;-76
2020/12/27 00:54:32;;;;;;;2.80;1.73;;;;;;;-1.02;83.00;96879.44;4947507;29;20701;-76
2020/12/27 00:56:58;;;;;;;4.88;1.90;;;;;;;-1.10;82.39;96860.84;4940834;29;20028;-77
2020/12/27 00:59:24;;;;;;;2.10;1.63;;;;;;;-1.08;83.43;96853.78;4951171;28;20486;-77
2020/12/27 01:01:56;;;;;;;2.60;0.98;;;;;;;-1.13;82.75;96855.13;4959173;28;20039;-77
2020/12/27 01:04:23;;;;;;;3.00;1.52;;;;;;;-1.16;82.41;96847.03;4931227;29;20059;-77
2020/12/27 01:06:49;;;;;;;3.53;1.83;;;;;;;-1.13;82.93;96847.47;4940764;29;21002;-76
2020/12/27 01:09:15;;;;;;;3.90;1.67;;;;;;;-1.19;82.75;96830.28;4943115;28;20043;-77
2020/12/27 01:11:44;;;;;;;3.38;1.45;;;;;;;-1.14;83.11;96825.44;4934584;29;20063;-77
2020/12/27 01:14:10;;;;;;;3.85;1.63;;;;;;;-1.18;83.04;96826.78;4934874;29;20041;-76
2020/12/27 01:16:36;;;;;;;4.45;2.47;;;;;;;-1.29;82.59;96819.56;4947964;29;20060;-76
2020/12/27 01:19:02;;;;;;;2.58;1.27;;;;;;;-1.18;83.10;96810.66;4948618;29;20047;-76
2020/12/27 01:21:29;;;;;;;3.53;1.40;;;;;;;-1.16;82.97;96813.81;4946669;29;20041;-77
2020/12/27 01:23:55;;;;;;;3.97;2.15;;;;;;;-1.08;82.88;96795.03;4960803;28;20036;-76
2020/12/27 01:26:34;;;;;;;2.50;1.38;;;;;;;-1.18;82.21;96795.34;4958560;28;20406;-76
2020/12/27 01:29:00;;;;;;;2.63;1.58;;;;;;;-1.19;82.48;96788.63;4949237;28;20027;-76
2020/12/27 01:31:26;;;;;;;2.67;1.30;;;;;;;-1.19;82.51;96779.19;4932489;29;20038;-77
2020/12/27 01:33:55;;;;;;;2.63;1.40;;;;;;;-1.22;82.26;96766.00;4936443;29;20039;-77
2020/12/27 01:36:26;;;;;;;2.22;1.10;;;;;;;-1.23;82.67;96754.22;4965814;28;20035;-77
2020/12/27 01:38:52;;;;;;;4.07;1.17;;;;;;;-1.32;83.40;96749.22;4968225;28;20473;-76
2020/12/27 01:41:27;;;;;;;1.67;1.00;;;;;;;-1.29;83.91;96737.81;4967845;28;20031;-77
2020/12/27 01:44:12;;;;;;;2.80;1.38;;;;;;;-1.19;82.81;96742.66;4926853;29;20053;-76
2020/12/27 01:46:40;;;;;;;3.60;1.60;;;;;;;-1.22;82.12;96737.91;4954779;28;20408;-77
2020/12/27 01:49:06;;;;;;;1.65;1.15;;;;;;;-1.21;82.58;96729.28;4933826;29;20507;-76
2020/12/27 01:51:33;;;;;;;4.10;1.13;;;;;;;-1.23;83.73;96715.91;4948479;29;20074;-77
2020/12/27 01:53:59;;;;;;;2.80;1.17;;;;;;;-1.27;82.44;96712.09;4916865;29;20059;-76
2020/12/27 01:56:28;;;;;;;2.63;1.42;;;;;;;-1.30;83.06;96709.91;4951037;28;20027;-76
2020/12/27 01:59:27;;;;;;;2.25;0.88;;;;;;;-1.32;82.52;96715.19;4931550;29;20062;-76
2020/12/27 02:01:53;;;;;;;2.58;0.68;;;;;;;-1.33;82.80;96693.19;4920166;29;20046;-77
2020/12/27 02:04:21;;;;;;;3.80;1.17;;;;;;;-1.34;83.16;96700.06;4954295;23;20062;-78
2020/12/27 02:06:47;;;;;;;2.30;0.90;;;;;;;-1.32;82.20;96698.13;4936163;28;20050;-77
2020/12/27 02:09:13;;;;;;;3.22;1.08;;;;;;;-1.28;83.08;96700.31;4923102;29;20066;-78
2020/12/27 02:11:39;;;;;;;3.05;1.05;;;;;;;-1.42;83.25;96684.03;4955595;29;20087;-78
2020/12/27 02:14:05;;;;;;;1.95;0.90;;;;;;;-1.38;82.50;96673.31;4922441;29;20623;-78
2020/12/27 02:16:31;;;;;;;1.92;1.10;;;;;;;-1.26;82.08;96675.38;4928773;29;20050;-78
2020/12/27 02:19:01;;;;;;;2.53;0.93;;;;;;;-1.39;82.56;96674.28;4937632;29;20121;-78
2020/12/27 02:21:29;;;;;;;3.28;0.95;;;;;;;-1.39;81.72;96664.06;4938447;29;20693;-77
2020/12/27 02:23:59;;;;;;;1.75;0.77;;;;;;;-1.31;82.43;96668.25;4955466;29;20031;-79
2020/12/27 02:26:28;;;;;;;2.00;0.85;;;;;;;-1.36;82.38;96665.47;4916022;29;20094;-79
2020/12/27 02:28:55;;;;;;;2.10;0.80;;;;;;;-1.25;82.09;96648.88;4955135;29;20043;-79
2020/12/27 02:31:25;;;;;;;5.13;1.00;;;;;;;-1.30;82.55;96646.06;4921638;29;20629;-78
2020/12/27 02:33:51;;;;;;;2.38;0.82;;;;;;;-1.34;83.23;96649.00;4937681;29;20062;-78
2020/12/27 02:36:17;;;;;;;1.80;0.80;;;;;;;-1.35;82.53;96626.97;4937171;29;20019;-79
2020/12/27 02:38:43;;;;;;;1.83;0.77;;;;;;;-1.35;82.55;96631.31;4955124;28;20033;-78
2020/12/27 02:41:16;;;;;;;8.15;1.27;;;;;;;-1.48;82.97;96631.16;4937787;29;20565;-79
2020/12/27 02:43:42;;;;;;;1.52;0.70;;;;;;;-1.42;83.46;96625.31;4937383;29;20123;-79
2020/12/27 02:46:26;;;;;;;1.17;0.77;;;;;;;-1.36;82.30;96609.28;4938288;29;20063;-79
2020/12/27 02:48:52;;;;;;;2.13;0.57;;;;;;;-1.46;82.48;96596.81;4921388;29;20027;-78
2020/12/27 02:51:20;;;;;;;3.50;0.88;;;;;;;-1.44;81.89;96591.53;4937660;29;20035;-78
2020/12/27 02:53:48;;;;;;;1.45;0.60;;;;;;;-1.48;81.69;96580.88;4921739;29;20034;-79
2020/12/27 02:56:17;;;;;;;1.88;0.68;;;;;;;-1.40;81.34;96583.31;4937498;29;20046;-78
2020/12/27 02:58:43;;;;;;;1.63;0.63;;;;;;;-1.38;81.25;96581.38;4936180;29;20035;-78
2020/12/27 03:01:09;;;;;;;1.52;0.90;;;;;;;-1.35;81.61;96570.81;4938002;29;20070;-78
2020/12/27 03:03:35;;;;;;;1.60;0.70;;;;;;;-1.37;81.50;96567.66;4955284;29;20536;-79
2020/12/27 03:06:01;;;;;;;1.10;0.73;;;;;;;-1.37;81.48;96551.50;4902641;29;20381;-78
2020/12/27 03:08:29;;;;;;;1.70;0.63;;;;;;;-1.36;80.65;96535.22;4899536;29;20047;-78
2020/12/27 03:10:55;;;;;;;1.42;0.60;;;;;;;-1.33;80.65;96525.44;4884253;29;20035;-78
2020/12/27 03:13:21;;;;;;;2.30;0.60;;;;;;;-1.33;81.45;96517.00;4913403;29;20044;-78
2020/12/27 03:15:47;;;;;;;2.45;0.50;;;;;;;-1.37;80.46;96503.81;4899130;29;20391;-78
2020/12/27 03:18:13;;;;;;;2.67;1.13;;;;;;;-1.29;80.98;96502.09;4883769;29;20044;-78
2020/12/27 03:20:39;;;;;;;1.60;0.57;;;;;;;-1.30;81.10;96490.28;4899082;29;20115;-78
2020/12/27 03:23:04;;;;;;;1.45;0.50;;;;;;;-1.43;81.56;96480.78;4913980;29;20036;-78
2020/12/27 03:25:30;;;;;;;1.75;0.68;;;;;;;-1.42;81.17;96477.22;4915461;29;20066;-78
2020/12/27 03:27:56;;;;;;;1.27;0.60;;;;;;;-1.42;81.66;96456.81;4914846;29;20055;-78
2020/12/27 03:30:22;;;;;;;2.83;0.80;;;;;;;-1.35;81.10;96450.00;4883289;29;20400;-79
2020/12/27 03:32:48;;;;;;;1.20;0.73;;;;;;;-1.32;81.61;96452.97;4898021;29;20104;-78
2020/12/27 03:35:14;;;;;;;3.15;0.80;;;;;;;-1.40;81.88;96453.09;4915540;29;20044;-77
2020/12/27 03:37:41;;;;;;;1.75;0.77;;;;;;;-1.36;81.10;96446.63;4915246;29;20092;-77
2020/12/27 03:40:08;;;;;;;2.13;0.77;;;;;;;-1.29;81.31;96435.69;4898136;29;20055;-78
2020/12/27 03:42:34;;;;;;;2.13;0.60;;;;;;;-1.28;81.30;96437.28;4915706;29;20060;-78
2020/12/27 03:45:00;;;;;;;1.27;0.52;;;;;;;-1.42;81.59;96426.97;4898904;29;20058;-78
2020/12/27 03:47:26;;;;;;;1.13;0.70;;;;;;;-1.29;82.36;96420.38;4898168;29;20028;-78
2020/12/27 03:49:52;;;;;;;2.58;0.75;;;;;;;-1.34;80.70;96406.41;4914924;29;20032;-78
2020/12/27 03:52:18;;;;;;;2.25;0.90;;;;;;;-1.32;81.54;96391.69;4914029;29;20432;-78
2020/12/27 03:54:44;;;;;;;1.67;0.88;;;;;;;-1.38;80.63;96384.75;4914083;29;20067;-77
2020/12/27 03:57:10;;;;;;;2.10;0.98;;;;;;;-1.38;81.14;96387.31;4898858;29;20063;-77
2020/12/27 03:59:35;;;;;;;0.90;0.70;;;;;;;-1.28;80.97;96381.09;4914724;29;20062;-77
2020/12/27 04:02:01;;;;;;;1.67;1.02;;;;;;;-1.17;80.86;96370.34;4883129;29;20064;-78
2020/12/27 04:04:27;;;;;;;2.05;0.77;;;;;;;-1.19;81.07;96373.06;4902300;29;20059;-78
2020/12/27 04:06:52;;;;;;;3.92;0.85;;;;;;;-1.27;81.34;96357.91;4900917;29;20051;-77
2020/12/27 04:09:18;;;;;;;1.45;0.80;;;;;;;-1.18;80.75;96364.44;4885942;29;20564;-78
2020/12/27 04:11:44;;;;;;;2.50;0.68;;;;;;;-1.24;81.72;96354.97;4901674;29;20036;-78
2020/12/27 04:14:12;;;;;;;2.33;1.13;;;;;;;-1.22;81.71;96347.91;4901738;29;20087;-79
2020/12/27 04:16:38;;;;;;;3.15;1.15;;;;;;;-1.20;81.03;96332.38;4917744;29;20031;-79
2020/12/27 04:19:06;;;;;;;2.42;1.00;;;;;;;-1.21;81.24;96335.94;4921380;29;20131;-79
2020/12/27 04:21:31;;;;;;;2.42;1.10;;;;;;;-1.17;80.42;96321.81;4901590;29;20036;-79
2020/12/27 04:23:57;;;;;;;2.22;0.95;;;;;;;-1.16;80.95;96315.72;4901586;29;20091;-77
2020/12/27 04:26:24;;;;;;;3.97;1.13;;;;;;;-1.25;81.22;96299.78;4917400;29;20043;-77
2020/12/27 04:28:51;;;;;;;2.60;0.98;;;;;;;-1.18;80.94;96287.03;4921768;29;20036;-78
2020/12/27 04:31:20;;;;;;;2.78;1.55;;;;;;;-1.16;81.32;96293.50;4900128;29;20047;-79
2020/12/27 04:33:50;;;;;;;1.55;1.00;;;;;;;-1.23;80.88;96276.63;4931242;29;20110;-78
2020/12/27 04:36:16;;;;;;;3.30;1.67;;;;;;;-1.15;81.06;96259.34;4917597;29;20168;-79
2020/12/27 04:38:43;;;;;;;3.05;1.30;;;;;;;-1.22;80.95;96255.19;4916938;29;20034;-79
2020/12/27 04:41:15;;;;;;;2.20;1.13;;;;;;;-1.26;80.86;96242.00;4932450;29;20054;-79
2020/12/27 04:43:47;;;;;;;2.80;0.98;;;;;;;-1.19;81.00;96247.13;4934724;29;20034;-78
2020/12/27 04:46:14;;;;;;;2.33;1.25;;;;;;;-1.23;81.12;96228.09;4908125;29;20032;-78
2020/12/27 04:48:42;;;;;;;2.70;1.20;;;;;;;-1.21;81.25;96236.34;4937846;29;20083;-76
2020/12/27 04:51:10;;;;;;;2.95;1.30;;;;;;;-1.19;81.30;96224.16;4913076;29;20086;-78
2020/12/27 04:53:37;;;;;;;1.92;1.23;;;;;;;-1.18;81.12;96218.06;4889157;29;20028;-78
2020/12/27 04:56:05;;;;;;;5.07;1.52;;;;;;;-1.16;81.11;96208.44;4920792;29;20117;-78
2020/12/27 04:58:31;;;;;;;3.13;1.52;;;;;;;-1.20;81.44;96194.47;4905112;29;20107;-78
2020/12/27 05:01:01;;;;;;;3.58;1.38;;;;;;;-1.24;81.44;96180.53;4904317;29;20415;-78
2020/12/27 05:03:29;;;;;;;4.15;1.55;;;;;;;-1.25;80.84;96167.00;4936433;29;20612;-77
2020/12/27 05:05:57;;;;;;;2.97;1.40;;;;;;;-1.33;81.71;96164.59;4918221;29;20063;-78
2020/12/27 05:08:24;;;;;;;3.90;1.50;;;;;;;-1.21;81.45;96157.94;4917679;29;20066;-77
2020/12/27 05:10:53;;;;;;;4.68;1.38;;;;;;;-1.28;81.51;96149.50;4919410;29;20024;-78
2020/12/27 05:13:19;;;;;;;4.97;2.28;;;;;;;-1.22;81.54;96137.69;4934095;29;20405;-78
2020/12/27 05:15:45;;;;;;;3.35;1.92;;;;;;;-1.25;81.58;96140.63;4935090;29;20158;-78
2020/12/27 05:18:12;;;;;;;4.55;1.85;;;;;;;-1.19;82.58;96135.53;4918592;29;20436;-78
2020/12/27 05:20:42;;;;;;;3.63;1.55;;;;;;;-1.13;82.42;96134.78;4935824;29;20036;-79
2020/12/27 05:23:09;;;;;;;3.97;1.90;;;;;;;-1.22;81.01;96125.72;4902182;29;20024;-78
2020/12/27 05:25:40;;;;;;;3.60;1.60;;;;;;;-1.19;81.69;96129.66;4932543;29;20032;-79
2020/12/27 05:28:07;;;;;;;3.90;1.80;;;;;;;-1.26;82.03;96124.53;4918580;29;20197;-78
2020/12/27 05:30:35;;;;;;;4.35;1.98;;;;;;;-1.24;81.21;96121.78;4917129;29;20082;-78
2020/12/27 05:33:10;;;;;;;5.25;2.10;;;;;;;-1.29;82.54;96113.94;4934311;29;20031;-79
2020/12/27 05:35:36;;;;;;;;;;;;;;;-1.29;81.73;96108.81;4918237;29;20103;-79
2020/12/27 05:38:02;;;;;;;6.13;2.25;;;;;;;-1.18;81.47;96095.47;4886412;29;20035;-78
2020/12/27 05:40:33;;;;;;;4.85;1.95;;;;;;;-1.27;81.52;96092.31;4918134;29;20391;-78
2020/12/27 05:42:59;;;;;;;7.60;2.40;;;;;;;-1.23;82.21;96102.94;4917493;29;20039;-77
2020/12/27 05:45:27;;;;;;;4.32;1.80;;;;;;;-1.25;82.29;96089.56;4916630;29;20103;-78
2020/12/27 05:47:53;;;;;;;3.90;2.30;;;;;;;-1.21;81.73;96083.09;4918427;29;20529;-78
2020/12/27 05:50:19;;;;;;;3.78;1.67;;;;;;;-1.17;82.46;96087.59;4933560;29;20027;-79
2020/12/27 05:52:47;;;;;;;3.70;2.10;;;;;;;-1.19;82.03;96073.47;4917521;29;20098;-78
2020/12/27 05:55:17;;;;;;;3.75;1.85;;;;;;;-1.15;81.02;96070.34;4933068;29;20027;-78
2020/12/27 05:57:48;;;;;;;4.55;1.88;;;;;;;-1.19;81.53;96068.38;4917165;29;20031;-78
2020/12/27 06:00:17;;;;;;;3.88;2.03;;;;;;;-1.15;81.80;96060.13;4917419;29;20525;-78
2020/12/27 06:02:43;;;;;;;3.50;1.75;;;;;;;-1.21;82.27;96043.00;4915689;29;20448;-78
2020/12/27 06:05:10;;;;;;;3.85;1.88;;;;;;;-1.18;81.82;96049.50;4900032;29;20384;-78
2020/12/27 06:07:36;;;;;;;5.35;2.58;;;;;;;-1.25;81.97;96046.97;4916231;29;20135;-78
2020/12/27 06:10:21;;;;;;;4.43;2.55;;;;;;;-1.21;82.75;96039.69;4922712;29;20031;-78
2020/12/27 06:13:24;;;;;;;4.00;2.05;;;;;;;-1.30;82.17;96022.97;4932587;29;20039;-78
2020/12/27 06:15:55;;;;;;;4.47;1.85;;;;;;;-1.20;81.82;96025.91;4932624;29;20102;-78
2020/12/27 06:18:26;;;;;;;5.00;2.10;;;;;;;-1.21;81.66;96020.03;4901344;29;20494;-78
2020/12/27 06:21:05;;;;;;;6.97;2.38;;;;;;;-1.17;81.70;96016.09;4900168;29;20023;-79
2020/12/27 06:23:30;;;;;;;4.03;2.42;;;;;;;-1.21;82.27;96014.16;4902561;29;20047;-78
2020/12/27 06:25:57;;;;;;;6.20;2.17;;;;;;;-1.24;82.55;95999.22;4916740;29;20031;-79
2020/12/27 06:28:22;;;;;;;5.32;2.28;;;;;;;-1.16;82.24;96009.22;4917007;29;20040;-79
2020/12/27 06:30:54;;;;;;;6.43;2.35;;;;;;;-1.25;82.79;95995.88;4916826;29;20038;-78
2020/12/27 06:33:22;;;;;;;3.97;2.05;;;;;;;-1.20;82.21;95995.28;4933644;29;20507;-79
2020/12/27 06:35:49;;;;;;;3.35;1.85;;;;;;;-1.16;82.74;95988.81;4919632;29;20047;-78
2020/12/27 06:38:19;;;;;;;5.65;2.42;;;;;;;-1.15;82.96;95983.50;4919367;29;20082;-79
2020/12/27 06:40:58;;;;;;;7.47;2.50;;;;;;;-1.23;82.60;95965.81;4933651;29;20028;-79
2020/12/27 06:43:24;;;;;;;4.18;2.30;;;;;;;-1.33;83.65;95961.13;4903200;29;20039;-79
2020/12/27 06:45:51;;;;;;;4.50;2.30;;;;;;;-1.26;83.32;95971.31;4919357;29;20119;-78
2020/12/27 06:48:31;;;;;;;5.32;2.70;;;;;;;-1.34;83.01;95958.75;4917640;29;20513;-79
2020/12/27 06:50:57;;;;;;;4.18;2.35;;;;;;;-1.38;84.12;95953.25;4913002;29;20038;-79
2020/12/27 06:53:38;;;;;;;4.32;2.30;;;;;;;-1.36;83.68;95953.06;4915091;29;20123;-77
2020/12/27 06:56:04;;;;;;;6.85;2.78;;;;;;;-1.32;83.82;95944.03;4941321;29;20027;-78
2020/12/27 06:58:30;;;;;;;5.25;2.47;;;;;;;-1.38;84.30;95932.06;4917705;29;20111;-79
2020/12/27 07:01:10;;;;;;;5.10;2.25;;;;;;;-1.36;84.13;95923.22;4918203;29;20024;-79
2020/12/27 07:03:36;;;;;;;7.72;3.30;;;;;;;-1.35;84.36;95927.34;4936676;29;20023;-79
2020/12/27 07:06:24;;;;;;;6.47;2.67;;;;;;;-1.28;84.60;95912.00;4902456;29;20412;-79
2020/12/27 07:08:56;;;;;;;4.82;2.72;;;;;;;-1.35;84.36;95903.59;4916912;29;20031;-79
2020/12/27 07:11:31;;;;;;;4.97;2.97;;;;;;;-1.38;84.99;95898.88;4934271;29;20032;-79
2020/12/27 07:13:57;;;;;;;6.00;2.60;;;;;;;-1.28;84.03;95901.81;4913284;29;20505;-78
2020/12/27 07:16:36;;;;;;;8.20;3.22;;;;;;;-1.30;84.32;95900.41;4934861;29;20038;-78
2020/12/27 07:19:04;;;;;;;5.72;2.60;;;;;;;-1.21;84.50;95887.25;4933367;29;20028;-76
2020/12/27 07:21:30;;;;;;;5.68;3.65;;;;;;;-1.25;84.77;95885.28;4931796;29;20034;-76
2020/12/27 07:24:08;;;;;;;5.53;3.08;;;;;;;-1.19;84.73;95887.03;4931013;29;20043;-78
2020/12/27 07:26:51;;;;;;;5.65;3.65;;;;;;;-1.16;84.87;95878.97;4932084;29;20094;-77
2020/12/27 07:29:24;;;;;;;4.80;2.63;;;;;;;-1.19;84.93;95872.50;4916479;29;20028;-78
2020/12/27 07:31:52;;;;;;;5.03;3.30;;;;;;;-1.21;85.41;95866.03;4915663;29;20115;-78
2020/12/27 07:34:22;;;;;;;5.10;2.70;;;;;;;-1.13;85.11;95863.25;4900346;29;20039;-78
2020/12/27 07:37:04;;;;;;;4.93;2.83;;;;;;;-1.15;85.16;95853.25;4933651;29;20019;-78
2020/12/27 07:39:50;;;;;;;5.13;2.63;;;;;;;-1.10;85.39;95847.50;4899291;29;20023;-78
2020/12/27 07:42:22;;;;;;;;;;;;;;;-1.19;86.13;95841.06;4915994;29;20119;-78
2020/12/27 07:44:47;;;;;;;6.07;2.70;;;;;;;-1.14;85.36;95842.03;4914946;29;20016;-77
2020/12/27 07:47:13;;;;;;;5.75;2.80;;;;;;;-1.15;86.07;95821.78;4914126;29;20050;-76
2020/12/27 07:49:40;;;;;;;4.57;2.13;;;;;;;-1.17;86.04;95819.44;4916719;29;20474;-77
2020/12/27 07:52:06;;;;;;;4.28;2.33;;;;;;;-1.06;85.32;95801.91;4933594;29;20090;-79
2020/12/27 07:54:31;;;;;;;4.68;2.58;;;;;;;-1.06;86.11;95807.81;4900464;29;20043;-78
2020/12/27 07:56:57;;;;;;;4.70;2.13;;;;;;;-1.00;85.46;95790.88;4918123;29;20115;-78
2020/12/27 07:59:23;;;;;;;4.95;2.53;;;;;;;-1.01;85.75;95782.44;4904304;29;20087;-78
2020/12/27 08:01:49;;;;;;;5.07;2.17;;;;;;;-0.93;85.61;95775.50;4934898;29;20035;-78
2020/12/27 08:04:15;;;;;;;3.55;1.95;;;;;;;-1.03;86.49;95775.94;4917719;29;20629;-79
2020/12/27 08:06:41;;;;;;;6.30;2.28;;;;;;;-0.92;85.92;95765.09;4917854;29;20127;-78
2020/12/27 08:09:11;;;;;;;3.83;2.50;;;;;;;-0.87;86.00;95765.25;4918750;29;20027;-80
2020/12/27 08:11:42;;;;;;;3.72;1.95;;;;;;;-0.90;85.82;95764.88;4917314;29;20554;-79
2020/12/27 08:14:10;;;;;;;4.13;1.63;;;;;;;-0.77;85.90;95752.03;4932193;29;20475;-78
2020/12/27 08:16:38;;;;;;;5.85;2.50;;;;;;;-0.68;85.17;95732.88;4933878;29;20028;-80
2020/12/27 08:19:12;;;;;;;3.35;1.75;;;;;;;-0.71;84.93;95743.50;4917579;29;20035;-78
2020/12/27 08:21:40;;;;;;;4.68;1.70;;;;;;;-0.64;84.73;95718.69;4933171;29;20031;-77
2020/12/27 08:24:11;;;;;;;4.95;2.45;;;;;;;-0.55;84.48;95713.31;4917729;29;20028;-79
2020/12/27 08:26:39;;;;;;;4.18;1.85;;;;;;;-0.59;84.81;95707.84;4901148;29;20031;-78
2020/12/27 08:29:18;;;;;;;3.08;1.45;;;;;;;-0.55;84.98;95696.19;4917427;29;20036;-77
2020/12/27 08:31:46;;;;;;;3.38;1.45;;;;;;;-0.53;84.76;95698.53;4932592;29;20039;-79
2020/12/27 08:34:13;;;;;;;5.55;1.85;;;;;;;-0.48;84.50;95696.94;4917781;29;20513;-77
2020/12/27 08:36:41;;;;;;;2.97;1.63;;;;;;;-0.45;85.04;95682.94;4932668;29;20111;-79
2020/12/27 08:39:34;;;;;;;2.85;1.90;;;;;;;-0.42;84.39;95690.19;4918689;29;20130;-78
2020/12/27 08:42:18;;;;;;;3.17;1.40;;;;;;;-0.32;85.13;95687.16;4930888;29;20083;-78
2020/12/27 08:44:54;;;;;;;2.72;1.20;;;;;;;-0.23;84.39;95690.97;4930113;29;20290;-80
2020/12/27 08:47:39;;;;;;;3.05;1.30;;;;;;;-0.25;84.02;95675.06;4933961;29;20080;-78
2020/12/27 08:50:13;;;;;;;3.25;1.10;;;;;;;-0.24;84.06;95667.19;4928470;29;20035;-80
2020/12/27 08:52:39;;;;;;;3.67;1.60;;;;;;;-0.11;84.22;95661.13;4916376;29;20050;-80
2020/12/27 08:55:09;;;;;;;3.65;1.52;;;;;;;-0.18;83.92;95646.88;4932438;29;20027;-79
2020/12/27 08:57:36;;;;;;;3.28;1.00;;;;;;;-0.08;83.79;95645.38;4932175;29;20071;-80
2020/12/27 09:00:08;;;;;;;2.78;1.10;;;;;;;-0.18;84.40;95639.19;4869857;29;20040;-80
2020/12/27 09:02:34;;;;;;;3.15;1.52;;;;;;;-0.06;84.01;95638.25;4917862;29;20103;-79
2020/12/27 09:05:11;;;;;;;3.20;1.45;;;;;;;-0.16;83.86;95620.06;4916390;29;20060;-80
2020/12/27 09:07:39;;;;;;;2.72;1.40;;;;;;;-0.02;83.12;95607.91;4917054;29;20514;-81
2020/12/27 09:10:27;;;;;;;3.80;1.50;;;;;;;-0.05;83.45;95587.88;4901923;29;20031;-80
2020/12/27 09:12:56;;;;;;;2.00;1.05;;;;;;;0.00;83.10;95590.59;4933402;29;20035;-81
2020/12/27 09:15:27;;;;;;;3.58;1.83;;;;;;;-0.04;82.92;95574.09;4928200;29;20077;-80
2020/12/27 09:17:57;;;;;;;3.00;1.40;;;;;;;0.14;82.59;95573.28;4932644;29;20043;-78
2020/12/27 09:20:23;;;;;;;2.88;1.60;;;;;;;0.24;82.65;95565.06;4915869;29;20107;-80
2020/12/27 09:22:50;;;;;;;2.78;1.30;;;;;;;0.17;82.54;95548.03;4932976;29;20087;-80
2020/12/27 09:25:18;;;;;;;2.78;1.20;;;;;;;0.28;82.63;95550.84;4932326;29;20051;-80
2020/12/27 09:27:45;;;;;;;2.83;1.23;;;;;;;0.23;82.56;95548.16;4911059;29;20036;-79
2020/12/27 09:30:19;;;;;;;3.90;1.38;;;;;;;0.27;82.34;95539.78;4917576;29;20074;-78
2020/12/27 09:32:46;;;;;;;4.23;1.27;;;;;;;0.42;81.85;95536.84;4935042;29;20043;-78
2020/12/27 09:35:21;;;;;;;3.40;1.30;;;;;;;0.37;82.04;95534.91;4919401;29;20502;-79
2020/12/27 09:37:49;;;;;;;3.15;1.00;;;;;;;0.44;82.21;95522.03;4936170;29;20106;-80
2020/12/27 09:40:19;;;;;;;3.08;1.13;;;;;;;0.44;82.11;95523.81;4919742;29;20036;-77
2020/12/27 09:42:45;;;;;;;2.67;1.00;;;;;;;0.47;81.90;95524.16;4905180;29;20566;-80
2020/12/27 09:45:23;;;;;;;1.90;1.10;;;;;;;0.44;81.68;95519.47;4935265;29;20142;-80
2020/12/27 09:47:51;;;;;;;2.22;1.10;;;;;;;0.49;81.53;95511.13;4925854;29;20043;-79
2020/12/27 09:50:24;;;;;;;2.47;0.88;;;;;;;0.49;80.93;95506.00;4935946;29;20039;-80
2020/12/27 09:52:49;;;;;;;1.35;0.73;;;;;;;0.60;80.46;95489.88;4888374;29;20047;-80
2020/12/27 09:55:15;;;;;;;2.55;1.02;;;;;;;0.54;81.02;95483.84;4903772;29;20406;-80
2020/12/27 09:57:42;;;;;;;2.35;1.38;;;;;;;0.67;81.26;95489.75;4935179;29;20028;-80
2020/12/27 10:00:08;;;;;;;1.90;1.00;;;;;;;0.63;81.40;95465.59;4936023;29;20043;-79
2020/12/27 10:02:34;;;;;;;3.58;0.90;;;;;;;0.66;80.80;95465.16;4919389;29;20032;-79
2020/12/27 10:05:00;;;;;;;2.40;1.40;;;;;;;0.64;80.82;95460.25;4903126;29;20495;-79
2020/12/27 10:07:26;;;;;;;2.25;0.82;;;;;;;0.63;80.39;95445.88;4919307;29;20055;-79
2020/12/27 10:09:52;;;;;;;2.38;0.93;;;;;;;0.56;81.64;95438.31;4940788;29;20466;-78
2020/12/27 10:12:19;;;;;;;1.80;0.70;;;;;;;0.63;81.84;95437.41;4903549;29;20040;-80
2020/12/27 10:14:44;;;;;;;1.50;0.75;;;;;;;0.61;81.28;95434.31;4920420;29;20383;-80
2020/12/27 10:17:10;;;;;;;1.70;0.80;;;;;;;0.61;81.24;95422.28;4917825;29;20023;-81
2020/12/27 10:19:36;;;;;;;2.53;1.00;;;;;;;0.63;80.59;95404.13;4902657;29;20040;-81
2020/12/27 10:22:03;;;;;;;2.08;0.85;;;;;;;0.66;80.66;95416.50;4918712;29;20126;-81
2020/12/27 10:24:32;;;;;;;2.60;0.80;;;;;;;0.66;80.57;95399.31;4902315;29;20069;-81
2020/12/27 10:27:07;;;;;;;1.83;0.70;;;;;;;0.65;80.91;95384.19;4935688;29;20028;-80
2020/12/27 10:29:34;;;;;;;1.60;0.60;;;;;;;0.58;81.15;95378.41;4918221;29;20032;-81
2020/12/27 10:32:04;;;;;;;2.05;1.00;;;;;;;0.54;81.32;95366.06;4920863;29;20415;-79
2020/12/27 10:34:30;;;;;;;2.05;0.75;;;;;;;0.55;80.74;95354.81;4927666;29;20379;-80
2020/12/27 10:36:58;;;;;;;2.05;0.73;;;;;;;0.52;81.01;95337.34;4920743;29;20031;-80
2020/12/27 10:39:25;;;;;;;3.50;0.77;;;;;;;0.59;81.46;95342.34;4920292;29;20477;-80
2020/12/27 10:41:52;;;;;;;1.88;0.63;;;;;;;0.59;81.27;95323.63;4905183;29;20042;-81
2020/12/27 10:44:18;;;;;;;1.65;0.70;;;;;;;0.56;81.37;95315.38;4934682;29;20024;-80
2020/12/27 10:46:45;;;;;;;1.63;0.80;;;;;;;0.53;80.35;95313.31;4919557;29;20051;-79
2020/12/27 10:49:11;;;;;;;1.70;0.80;;;;;;;0.51;80.70;95283.78;4919516;29;20044;-79
2020/12/27 10:51:38;;;;;;;2.05;0.70;;;;;;;0.48;81.67;95291.91;4919714;29;20032;-78
2020/12/27 10:54:05;;;;;;;1.25;0.65;;;;;;;0.56;81.15;95284.66;4918403;29;20024;-77
2020/12/27 10:56:31;;;;;;;3.70;1.40;;;;;;;0.51;80.95;95253.84;4903043;29;20447;-80
2020/12/27 10:58:57;;;;;;;2.05;0.70;;;;;;;0.62;80.80;95259.16;4934769;29;20837;-79
2020/12/27 11:01:23;;;;;;;2.05;0.60;;;;;;;0.62;81.23;95248.91;4909090;29;20423;-79
2020/12/27 11:03:49;;;;;;;2.40;0.70;;;;;;;0.55;80.97;95228.56;4902627;29;20044;-78
2020/12/27 11:06:15;;;;;;;1.15;0.60;;;;;;;0.55;80.58;95238.81;4919166;29;20068;-79
2020/12/27 11:08:41;;;;;;;3.03;0.63;;;;;;;0.55;80.70;95228.56;4934656;29;20032;-79
2020/12/27 11:11:07;;;;;;;2.38;0.85;;;;;;;0.63;80.97;95215.38;4909546;29;20136;-79
2020/12/27 11:13:34;;;;;;;1.73;0.80;;;;;;;0.54;81.08;95214.22;4935684;29;20059;-80
2020/12/27 11:16:01;;;;;;;1.98;0.77;;;;;;;0.60;81.28;95215.06;4910911;29;20090;-80
2020/12/27 11:18:27;;;;;;;2.35;1.10;;;;;;;0.68;80.36;95194.22;4923632;29;20122;-80
2020/12/27 11:20:53;;;;;;;2.55;0.90;;;;;;;0.71;80.28;95189.41;4919215;29;20023;-79
2020/12/27 11:23:21;;;;;;;1.65;0.70;;;;;;;0.70;80.56;95180.19;4935514;29;20023;-80
2020/12/27 11:25:47;;;;;;;1.30;0.63;;;;;;;0.64;80.77;95159.84;4915050;29;20521;-79
2020/12/27 11:28:13;;;;;;;3.28;1.50;;;;;;;0.65;80.46;95163.94;4918180;29;20058;-78
2020/12/27 11:30:39;;;;;;;1.70;0.85;;;;;;;0.75;80.21;95148.72;4918067;29;20040;-80
2020/12/27 11:33:05;;;;;;;2.33;1.10;;;;;;;0.77;79.88;95144.16;4882498;29;20040;-79
2020/12/27 11:35:31;;;;;;;3.45;1.35;;;;;;;0.69;80.79;95131.75;4916056;29;20035;-78
2020/12/27 11:38:01;;;;;;;1.20;0.60;;;;;;;0.73;80.43;95117.47;4916034;29;20047;-79
2020/12/27 11:40:27;;;;;;;1.63;0.63;;;;;;;0.72;80.01;95105.66;4934670;29;20593;-79
2020/12/27 11:42:54;;;;;;;3.28;0.82;;;;;;;0.80;80.26;95092.47;4915777;29;20040;-79